Time;durP1;ratioP1;P1;durP2;ratioP2;P2;SDS_P1;SDS_P2;PMS_P1;PMS_P2;Temp;Humidity;BMP_temperature;BMP_pressure;BME280_temperature;BME280_humidity;BME280_pressure;Samples;Min_cycle;Max_cycle;Signal;HPM_P1;HPM_P2
2022/10/01 00:01:16;;;;;;;5.53;3.93;;;;;;;17.69;67.41;97416.78;5110626;28;20193;-78
2022/10/01 00:03:44;;;;;;;4.13;3.60;;;;;;;17.99;67.19;97426.97;5110131;28;20193;-78
2022/10/01 00:06:15;;;;;;;5.17;4.13;;;;;;;18.08;66.14;97416.66;5110219;28;20884;-79
2022/10/01 00:08:47;;;;;;;6.47;4.60;;;;;;;18.27;65.47;97416.22;5110375;28;20194;-78
2022/10/01 00:11:20;;;;;;;7.07;4.43;;;;;;;18.37;65.21;97419.88;5109549;28;20685;-79
2022/10/01 00:13:47;;;;;;;6.33;4.83;;;;;;;18.44;65.19;97413.28;5110531;28;20304;-79
2022/10/01 00:16:26;;;;;;;4.70;3.97;;;;;;;18.59;64.56;97418.25;5109934;28;20197;-79
2022/10/01 00:18:54;;;;;;;7.23;4.30;;;;;;;18.51;64.78;97420.59;5110011;28;20241;-79
2022/10/01 00:21:24;;;;;;;6.03;4.27;;;;;;;18.41;65.22;97418.69;5091751;28;20187;-79
2022/10/01 00:23:55;;;;;;;7.47;4.67;;;;;;;18.37;65.77;97425.97;5109995;28;20195;-78
2022/10/01 00:26:25;;;;;;;5.13;4.10;;;;;;;18.31;65.46;97415.91;5110880;28;20277;-79
2022/10/01 00:28:56;;;;;;;5.30;4.33;;;;;;;18.37;65.40;97422.50;5091423;28;20268;-79
2022/10/01 00:31:24;;;;;;;6.13;4.60;;;;;;;18.16;65.89;97431.84;5110146;28;20208;-79
2022/10/01 00:33:52;;;;;;;4.40;3.73;;;;;;;17.80;66.91;97438.69;5109728;28;20226;-80
2022/10/01 00:36:20;;;;;;;7.33;4.30;;;;;;;17.21;68.76;97436.56;5109736;28;20190;-78
2022/10/01 00:38:47;;;;;;;7.47;4.20;;;;;;;16.96;69.96;97431.28;5109413;28;20277;-78
2022/10/01 00:41:16;;;;;;;6.23;4.20;;;;;;;16.77;70.73;97433.41;5109460;28;20576;-78
2022/10/01 00:43:48;;;;;;;6.77;4.30;;;;;;;16.74;70.87;97425.75;5109756;28;20225;-78
2022/10/01 00:46:42;;;;;;;4.97;4.17;;;;;;;16.76;71.27;97416.03;5108918;28;20187;-80
2022/10/01 00:49:23;;;;;;;5.83;4.77;;;;;;;16.83;70.93;97414.69;5109236;28;20640;-80
2022/10/01 00:51:55;;;;;;;7.57;4.30;;;;;;;16.82;70.77;97410.38;5109304;28;20189;-80
2022/10/01 00:54:29;;;;;;;5.23;4.37;;;;;;;16.73;70.53;97374.38;5108753;28;20224;-79
2022/10/01 00:56:58;;;;;;;6.90;4.77;;;;;;;16.96;70.31;97400.72;5109763;28;20201;-79
2022/10/01 00:59:27;;;;;;;6.97;4.17;;;;;;;17.04;70.17;97406.28;5090362;28;20242;-79
2022/10/01 01:01:54;;;;;;;4.77;4.37;;;;;;;17.15;70.20;97402.13;5109155;28;20191;-78
2022/10/01 01:04:21;;;;;;;6.23;4.73;;;;;;;17.12;69.80;97392.72;5108850;28;20216;-78
2022/10/01 01:06:54;;;;;;;6.50;4.37;;;;;;;17.26;69.49;97392.63;5108879;28;20179;-77
2022/10/01 01:09:29;;;;;;;6.50;4.30;;;;;;;17.52;69.06;97407.44;5109155;28;20191;-78
2022/10/01 01:12:08;;;;;;;4.73;3.90;;;;;;;17.72;68.00;97404.31;5108220;28;20188;-78
2022/10/01 01:14:40;;;;;;;6.30;3.97;;;;;;;17.82;67.86;97405.38;5090765;28;20219;-77
2022/10/01 01:17:13;;;;;;;5.00;4.17;;;;;;;17.94;67.01;97405.47;5108764;28;20189;-79
2022/10/01 01:19:49;;;;;;;7.37;4.00;;;;;;;17.82;67.20;97405.38;5108696;28;20184;-78
2022/10/01 01:22:20;;;;;;;6.13;4.23;;;;;;;17.84;67.84;97398.25;5108874;28;20199;-79
2022/10/01 01:25:12;;;;;;;5.70;4.10;;;;;;;17.96;67.23;97398.34;5110532;28;20674;-78
2022/10/01 01:27:52;;;;;;;6.67;4.23;;;;;;;17.94;66.81;97392.34;5109122;28;20276;-79
2022/10/01 01:30:19;;;;;;;4.57;3.93;;;;;;;17.93;66.54;97407.25;5108492;28;20216;-79
2022/10/01 01:33:04;;;;;;;4.90;3.60;;;;;;;18.06;66.21;97413.31;5108249;28;20219;-78
2022/10/01 01:35:42;;;;;;;4.70;3.83;;;;;;;17.79;67.05;97410.81;5108717;28;20626;-77
2022/10/01 01:38:14;;;;;;;6.23;4.27;;;;;;;17.63;67.40;97415.44;5107639;28;20205;-80
2022/10/01 01:40:45;;;;;;;4.53;3.90;;;;;;;17.44;67.87;97414.94;5108601;28;20280;-78
2022/10/01 01:43:19;;;;;;;5.23;4.03;;;;;;;17.14;68.93;97424.00;5108110;28;20219;-78
2022/10/01 01:45:51;;;;;;;6.23;3.83;;;;;;;16.82;70.00;97413.00;5107916;28;20654;-78
2022/10/01 01:48:18;;;;;;;5.33;4.03;;;;;;;16.52;71.45;97412.38;5108363;28;20234;-78
2022/10/01 01:51:01;;;;;;;7.07;4.53;;;;;;;16.34;72.40;97408.28;5106835;28;20194;-77
2022/10/01 01:53:30;;;;;;;4.97;4.47;;;;;;;16.26;73.06;97406.97;5108438;28;20308;-78
2022/10/01 01:55:59;;;;;;;5.03;4.20;;;;;;;16.28;73.02;97407.69;5073081;28;20216;-76
2022/10/01 01:58:27;;;;;;;5.17;4.23;;;;;;;16.29;73.11;97395.47;5107848;28;20220;-77
2022/10/01 02:00:54;;;;;;;5.83;4.83;;;;;;;16.19;73.22;97399.59;5107910;28;20191;-76
2022/10/01 02:03:28;;;;;;;6.20;4.93;;;;;;;16.44;72.89;97404.13;5107764;28;20275;-77
2022/10/01 02:06:25;;;;;;;5.47;4.50;;;;;;;16.65;71.99;97421.94;5108300;28;20218;-78
2022/10/01 02:09:10;;;;;;;6.50;4.57;;;;;;;16.82;71.45;97420.84;5107608;28;20185;-78
2022/10/01 02:11:56;;;;;;;5.30;4.37;;;;;;;16.92;70.58;97424.56;5107658;28;20211;-76
2022/10/01 02:14:35;;;;;;;7.57;4.80;;;;;;;16.98;70.11;97422.38;5107781;28;20211;-76
2022/10/01 02:17:07;;;;;;;6.70;5.03;;;;;;;17.02;69.52;97413.38;5107210;28;20194;-75
2022/10/01 02:19:42;;;;;;;16.73;5.47;;;;;;;16.85;70.03;97407.59;5107864;28;20191;-75
2022/10/01 02:22:25;;;;;;;8.77;4.80;;;;;;;16.75;70.96;97414.34;5110506;28;20191;-77
2022/10/01 02:24:56;;;;;;;6.53;4.87;;;;;;;16.64;71.27;97416.81;5107638;28;20208;-77
2022/10/01 02:27:30;;;;;;;11.10;5.03;;;;;;;16.75;70.86;97423.06;5107812;28;20191;-77
2022/10/01 02:30:01;;;;;;;5.53;4.90;;;;;;;16.71;70.77;97405.84;5107121;28;20188;-77
2022/10/01 02:32:30;;;;;;;5.53;5.00;;;;;;;16.32;71.67;97405.75;5107857;28;20601;-77
2022/10/01 02:34:59;;;;;;;5.90;4.67;;;;;;;16.03;72.99;97417.19;5107019;28;20249;-77
2022/10/01 02:37:27;;;;;;;8.50;4.53;;;;;;;16.02;73.09;97429.38;5107413;28;20188;-78
2022/10/01 02:39:56;;;;;;;6.93;4.77;;;;;;;15.97;73.81;97433.22;5107429;28;20184;-77
2022/10/01 02:42:27;;;;;;;6.77;5.23;;;;;;;16.10;73.40;97429.75;5107573;28;20184;-77
2022/10/01 02:44:55;;;;;;;6.87;5.03;;;;;;;16.17;72.85;97433.69;5107737;28;20187;-77
2022/10/01 02:47:49;;;;;;;6.73;4.53;;;;;;;16.21;73.00;97440.41;5107274;28;20223;-78
2022/10/01 02:50:16;;;;;;;6.70;4.53;;;;;;;16.21;73.28;97445.63;5107807;28;20215;-78
2022/10/01 02:53:04;;;;;;;5.77;4.60;;;;;;;16.30;72.56;97431.13;5088981;28;20614;-79
2022/10/01 02:55:40;;;;;;;9.70;5.40;;;;;;;16.28;72.72;97441.69;5106776;28;20183;-77
2022/10/01 02:58:07;;;;;;;6.63;4.90;;;;;;;16.20;72.97;97437.84;5107792;28;20191;-77
2022/10/01 03:00:34;;;;;;;6.87;4.30;;;;;;;16.28;72.84;97446.06;5106547;28;20193;-77
2022/10/01 03:03:01;;;;;;;5.93;4.47;;;;;;;16.53;71.88;97441.03;5107259;28;20390;-77
2022/10/01 03:05:28;;;;;;;6.13;4.97;;;;;;;16.66;71.41;97438.47;5091033;28;20184;-77
2022/10/01 03:07:55;;;;;;;6.10;4.77;;;;;;;16.67;71.39;97432.31;5101550;28;20202;-78
2022/10/01 03:10:22;;;;;;;7.33;5.13;;;;;;;16.30;72.51;97431.97;5111419;28;20222;-79
2022/10/01 03:12:49;;;;;;;8.70;5.53;;;;;;;16.11;73.20;97439.28;5110970;28;20672;-77
2022/10/01 03:15:18;;;;;;;8.93;4.83;;;;;;;16.00;74.17;97433.88;5093048;28;20197;-78
2022/10/01 03:17:50;;;;;;;6.47;4.90;;;;;;;15.90;74.52;97435.38;5102466;28;20208;-78
2022/10/01 03:20:17;;;;;;;6.77;5.00;;;;;;;16.06;74.13;97445.72;5090917;28;20193;-79
2022/10/01 03:22:45;;;;;;;6.10;4.83;;;;;;;16.15;73.68;97429.47;5107367;28;20212;-78
2022/10/01 03:25:14;;;;;;;6.00;5.13;;;;;;;16.12;73.71;97440.09;5110817;28;20183;-78
2022/10/01 03:27:41;;;;;;;7.43;5.03;;;;;;;16.11;73.99;97446.28;5111299;28;20191;-79
2022/10/01 03:30:09;;;;;;;5.47;4.90;;;;;;;16.19;73.53;97455.34;5110450;28;20196;-77
2022/10/01 03:32:36;;;;;;;8.23;5.17;;;;;;;16.22;73.47;97429.00;5111203;28;20208;-78
2022/10/01 03:35:03;;;;;;;5.83;5.00;;;;;;;16.63;71.97;97459.59;5110275;28;20211;-78
2022/10/01 03:37:30;;;;;;;5.97;5.23;;;;;;;16.78;71.52;97462.06;5111018;28;20568;-79
2022/10/01 03:39:57;;;;;;;9.57;4.20;;;;;;;16.95;70.95;97471.47;5110624;28;20187;-79
2022/10/01 03:42:24;;;;;;;10.73;5.37;;;;;;;17.01;70.50;97468.44;5110596;28;20287;-79
2022/10/01 03:44:51;;;;;;;7.20;5.20;;;;;;;17.10;69.92;97458.22;5092459;28;20194;-79
2022/10/01 03:47:18;;;;;;;8.10;4.73;;;;;;;16.71;71.05;97465.19;5110290;28;20670;-80
2022/10/01 03:49:45;;;;;;;7.23;5.20;;;;;;;16.46;71.85;97459.78;5110772;28;20280;-78
2022/10/01 03:52:12;;;;;;;8.17;5.00;;;;;;;16.02;73.35;97460.75;5092433;28;20217;-78
2022/10/01 03:54:39;;;;;;;10.47;5.07;;;;;;;15.84;74.52;97459.25;5090245;28;20599;-77
2022/10/01 03:57:06;;;;;;;8.03;4.83;;;;;;;15.69;75.19;97459.31;5090045;28;20188;-78
2022/10/01 03:59:33;;;;;;;5.43;4.87;;;;;;;15.70;75.28;97458.38;5089971;28;20180;-77
2022/10/01 04:01:59;;;;;;;6.27;5.27;;;;;;;15.53;76.07;97464.59;5095313;28;20295;-77
2022/10/01 04:04:27;;;;;;;7.83;4.60;;;;;;;15.41;76.53;97467.91;5110067;28;20185;-78
2022/10/01 04:06:54;;;;;;;8.13;5.67;;;;;;;15.27;77.07;97468.69;5110451;28;20596;-80
2022/10/01 04:09:21;;;;;;;6.93;4.93;;;;;;;15.30;77.31;97489.38;5109943;28;20615;-78
2022/10/01 04:11:48;;;;;;;6.80;5.17;;;;;;;15.35;76.92;97494.34;5110454;28;20659;-77
2022/10/01 04:14:15;;;;;;;7.53;5.10;;;;;;;15.30;77.23;97496.38;5108544;28;20226;-78
2022/10/01 04:16:42;;;;;;;7.57;5.27;;;;;;;15.35;77.03;97510.81;5109905;27;20278;-77
2022/10/01 04:19:10;;;;;;;5.10;4.60;;;;;;;15.35;76.80;97504.78;5100195;28;20192;-78
2022/10/01 04:21:37;;;;;;;6.57;4.97;;;;;;;15.35;77.11;97510.00;5091486;28;20298;-78
2022/10/01 04:24:05;;;;;;;6.87;5.00;;;;;;;15.48;76.89;97508.38;5092054;28;20195;-77
2022/10/01 04:26:32;;;;;;;6.30;5.70;;;;;;;15.49;76.58;97520.53;5089250;28;20206;-78
2022/10/01 04:28:59;;;;;;;7.73;5.33;;;;;;;15.38;77.06;97515.03;5108309;28;20197;-78
2022/10/01 04:31:26;;;;;;;8.43;5.37;;;;;;;15.36;77.20;97511.69;5109498;28;20192;-78
2022/10/01 04:33:55;;;;;;;8.10;4.87;;;;;;;15.34;77.36;97508.31;5109851;28;20219;-78
2022/10/01 04:36:23;;;;;;;8.60;4.97;;;;;;;15.25;77.34;97487.97;5109480;28;20222;-78
2022/10/01 04:38:54;;;;;;;5.40;4.83;;;;;;;15.51;77.10;97504.75;5094221;28;20232;-78
2022/10/01 04:41:29;;;;;;;7.33;4.80;;;;;;;15.48;76.63;97479.69;5083629;28;20531;-78
2022/10/01 04:44:00;;;;;;;8.00;5.10;;;;;;;15.82;75.86;97513.34;5108766;28;20215;-78
2022/10/01 04:46:28;;;;;;;9.00;5.20;;;;;;;15.79;75.08;97463.88;5109915;28;20184;-78
2022/10/01 04:48:56;;;;;;;5.87;4.93;;;;;;;16.26;74.17;97501.06;5109001;28;20188;-79
2022/10/01 04:51:23;;;;;;;8.13;5.50;;;;;;;16.64;73.12;97497.88;5109333;28;20691;-79
2022/10/01 04:53:50;;;;;;;8.53;4.90;;;;;;;16.94;71.51;97499.41;5108837;28;20217;-79
2022/10/01 04:56:17;;;;;;;10.77;5.83;;;;;;;17.26;70.84;97494.72;5090922;28;20190;-79
2022/10/01 04:58:44;;;;;;;6.53;5.10;;;;;;;17.47;69.33;97484.63;5109083;28;20660;-79
2022/10/01 05:01:10;;;;;;;8.27;5.50;;;;;;;17.68;68.58;97491.91;5108781;28;20221;-78
2022/10/01 05:03:37;;;;;;;6.83;5.63;;;;;;;17.87;67.86;97487.13;5109239;28;20193;-77
2022/10/01 05:06:05;;;;;;;12.80;6.20;;;;;;;18.06;67.26;97491.09;5101295;28;20198;-78
2022/10/01 05:08:31;;;;;;;5.73;4.73;;;;;;;18.21;66.78;97482.19;5088784;28;20289;-78
2022/10/01 05:11:00;;;;;;;9.37;6.33;;;;;;;18.23;66.98;97494.25;5070311;28;20203;-75
2022/10/01 05:13:37;;;;;;;8.60;5.63;;;;;;;18.31;66.00;97491.09;5089912;28;20296;-77
2022/10/01 05:16:04;;;;;;;9.77;6.47;;;;;;;18.39;65.75;97483.53;5089095;28;20218;-78
2022/10/01 05:18:33;;;;;;;9.80;7.50;;;;;;;18.48;64.97;97485.56;5088541;28;20186;-73
2022/10/01 05:21:07;;;;;;;8.50;6.20;;;;;;;18.57;65.44;97498.00;5076497;28;20204;-77
2022/10/01 05:23:34;;;;;;;13.83;7.33;;;;;;;18.47;65.13;97491.72;5074626;28;20274;-77
2022/10/01 05:26:04;;;;;;;10.27;5.83;;;;;;;18.42;64.54;97497.25;5087417;28;20192;-80
2022/10/01 05:28:32;;;;;;;10.80;6.13;;;;;;;18.45;65.66;97506.75;5103384;28;20245;-78
2022/10/01 05:31:02;;;;;;;5.87;4.73;;;;;;;18.32;65.25;97501.47;5103077;28;20218;-75
2022/10/01 05:33:44;;;;;;;7.43;4.70;;;;;;;18.36;65.35;97510.00;5092260;28;20214;-77
2022/10/01 05:36:12;;;;;;;7.10;4.57;;;;;;;18.06;66.24;97502.44;5107747;28;20559;-77
2022/10/01 05:38:41;;;;;;;8.30;5.43;;;;;;;17.71;66.72;97470.75;5109106;28;20348;-77
2022/10/01 05:41:08;;;;;;;8.03;5.57;;;;;;;17.61;67.86;97490.66;5108062;28;20193;-78
2022/10/01 05:43:35;;;;;;;7.53;5.33;;;;;;;17.52;68.31;97498.25;5108301;28;20258;-79
2022/10/01 05:46:04;;;;;;;6.70;4.97;;;;;;;17.60;68.46;97502.06;5107652;28;20192;-73
2022/10/01 05:48:33;;;;;;;6.63;5.10;;;;;;;17.41;69.27;97504.19;5108108;28;20733;-77
2022/10/01 05:51:01;;;;;;;6.13;5.00;;;;;;;17.46;69.57;97507.34;5107890;28;20268;-78
2022/10/01 05:53:28;;;;;;;10.20;5.13;;;;;;;17.38;70.49;97499.16;5106984;28;20193;-77
2022/10/01 05:56:01;;;;;;;8.93;5.20;;;;;;;17.56;69.91;97497.13;5108516;28;20261;-77
2022/10/01 05:58:30;;;;;;;6.37;4.93;;;;;;;17.70;69.80;97500.50;5109906;28;20190;-77
2022/10/01 06:00:57;;;;;;;5.73;4.47;;;;;;;18.02;68.49;97510.59;5073057;28;20581;-77
2022/10/01 06:03:27;;;;;;;6.40;4.90;;;;;;;18.08;68.11;97504.94;5107506;28;20579;-78
2022/10/01 06:05:54;;;;;;;9.03;5.33;;;;;;;18.40;67.61;97511.44;5107622;28;20278;-77
2022/10/01 06:08:22;;;;;;;6.30;4.67;;;;;;;18.45;67.64;97504.13;5107976;28;20182;-78
2022/10/01 06:10:49;;;;;;;7.93;4.67;;;;;;;18.44;67.77;97515.56;5107523;28;20195;-75
2022/10/01 06:13:18;;;;;;;5.73;4.23;;;;;;;18.61;67.46;97509.97;5108525;28;20383;-78
2022/10/01 06:15:45;;;;;;;6.70;4.90;;;;;;;18.50;68.55;97494.16;5088446;28;20232;-76
2022/10/01 06:18:15;;;;;;;6.70;3.90;;;;;;;18.69;67.64;97497.97;5107643;28;20189;-74
2022/10/01 06:20:42;;;;;;;6.33;4.30;;;;;;;18.75;67.94;97501.97;5107388;28;20181;-75
2022/10/01 06:23:11;;;;;;;5.83;4.23;;;;;;;19.02;67.05;97505.22;5088893;28;20247;-76
2022/10/01 06:25:40;;;;;;;5.03;4.30;;;;;;;19.32;65.80;97496.94;5106818;28;20733;-72
2022/10/01 06:28:10;;;;;;;7.43;4.77;;;;;;;19.70;64.50;97509.91;5106496;28;20698;-75
2022/10/01 06:30:38;;;;;;;5.73;3.77;;;;;;;19.90;63.69;97520.59;5088998;28;20195;-75
2022/10/01 06:33:08;;;;;;;7.17;4.37;;;;;;;20.04;62.91;97519.53;5106069;28;20241;-76
2022/10/01 06:35:40;;;;;;;4.97;3.87;;;;;;;20.35;62.52;97525.94;5106516;28;20279;-76
2022/10/01 06:38:08;;;;;;;6.57;4.67;;;;;;;20.54;61.77;97516.53;5106357;28;20640;-75
2022/10/01 06:40:36;;;;;;;13.40;5.90;;;;;;;20.74;60.70;97502.63;5106824;28;20183;-75
2022/10/01 06:43:06;;;;;;;6.60;4.40;;;;;;;21.01;59.85;97510.97;5106577;28;20255;-76
2022/10/01 06:45:39;;;;;;;11.47;5.70;;;;;;;21.11;59.71;97507.63;5087465;28;20686;-75
2022/10/01 06:48:07;;;;;;;4.97;3.77;;;;;;;20.92;59.95;97516.97;5108033;28;20214;-75
2022/10/01 06:50:34;;;;;;;4.07;3.67;;;;;;;20.74;60.79;97510.53;5105746;28;20274;-75
2022/10/01 06:53:01;;;;;;;5.10;4.10;;;;;;;20.77;60.35;97512.91;5106692;28;20647;-75
2022/10/01 06:55:32;;;;;;;7.43;4.80;;;;;;;20.97;60.31;97517.44;5087888;28;20890;-76
2022/10/01 06:58:00;;;;;;;9.37;4.07;;;;;;;21.12;58.76;97504.03;5088159;28;20198;-76
2022/10/01 07:00:29;;;;;;;4.37;3.60;;;;;;;20.91;59.13;97474.97;5106758;28;20677;-75
2022/10/01 07:02:57;;;;;;;6.07;4.63;;;;;;;21.39;58.21;97496.53;5106009;28;20694;-76
2022/10/01 07:05:24;;;;;;;4.97;3.73;;;;;;;21.68;57.09;97505.50;5088490;28;20199;-75
2022/10/01 07:08:27;;;;;;;3.90;3.23;;;;;;;21.50;57.88;97497.31;5108103;28;20567;-74
2022/10/01 07:11:10;;;;;;;8.97;4.17;;;;;;;21.83;57.13;97494.56;5085053;28;20293;-74
2022/10/01 07:13:38;;;;;;;4.50;3.43;;;;;;;21.93;55.77;97491.16;5086832;28;20199;-73
2022/10/01 07:16:07;;;;;;;5.03;3.50;;;;;;;22.17;56.43;97492.56;5084552;28;20693;-75
2022/10/01 07:18:34;;;;;;;6.03;4.60;;;;;;;22.40;55.67;97490.59;5088874;28;20227;-75
2022/10/01 07:21:01;;;;;;;4.67;3.53;;;;;;;22.58;54.61;97496.97;5102767;28;20580;-76
2022/10/01 07:23:28;;;;;;;5.97;3.23;;;;;;;22.83;54.08;97501.78;5106596;28;20190;-76
2022/10/01 07:25:58;;;;;;;9.53;4.33;;;;;;;23.02;53.58;97493.06;5107454;28;20191;-75
2022/10/01 07:28:26;;;;;;;10.67;4.10;;;;;;;23.16;52.45;97500.59;5104178;28;20217;-76
2022/10/01 07:31:10;;;;;;;4.77;3.77;;;;;;;23.04;52.01;97491.13;5102058;28;20203;-75
2022/10/01 07:33:40;;;;;;;6.30;3.57;;;;;;;22.99;52.18;97501.25;5105765;28;20203;-75
2022/10/01 07:36:12;;;;;;;5.83;4.30;;;;;;;23.01;51.89;97491.38;5106412;28;20227;-76
2022/10/01 07:38:42;;;;;;;7.43;3.43;;;;;;;23.18;51.99;97502.16;5105080;28;20682;-75
2022/10/01 07:41:09;;;;;;;5.53;3.73;;;;;;;23.33;50.56;97500.78;5087754;28;20207;-76
2022/10/01 07:43:38;;;;;;;6.67;3.30;;;;;;;23.40;49.91;97490.50;5087166;28;20611;-77
2022/10/01 07:46:05;;;;;;;8.63;4.07;;;;;;;23.64;50.32;97513.91;5105332;28;20199;-81
2022/10/01 07:48:33;;;;;;;6.43;3.67;;;;;;;23.76;49.08;97510.16;5107913;28;20199;-75
2022/10/01 07:51:00;;;;;;;6.97;3.40;;;;;;;23.62;50.35;97500.81;5109286;28;20195;-76
2022/10/01 07:53:27;;;;;;;5.07;3.37;;;;;;;23.77;49.65;97499.41;5110936;28;20546;-76
2022/10/01 07:55:54;;;;;;;5.87;3.93;;;;;;;23.81;49.29;97489.38;5111052;28;20753;-76
2022/10/01 07:58:22;;;;;;;3.30;3.00;;;;;;;23.76;49.57;97486.34;5111061;28;20192;-78
2022/10/01 08:00:57;;;;;;;5.60;3.03;;;;;;;23.75;49.45;97480.22;5076820;28;20198;-77
2022/10/01 08:03:24;;;;;;;4.40;3.07;;;;;;;23.63;48.74;97480.50;5098073;27;20295;-77
2022/10/01 08:05:52;;;;;;;4.50;3.13;;;;;;;23.82;47.43;97469.91;5090693;28;20692;-77
2022/10/01 08:08:20;;;;;;;4.53;3.73;;;;;;;24.05;46.80;97477.41;5088728;28;20194;-78
2022/10/01 08:10:49;;;;;;;7.77;4.83;;;;;;;24.28;46.50;97475.25;5089321;28;20189;-77
2022/10/01 08:13:17;;;;;;;5.27;4.33;;;;;;;24.51;47.70;97478.38;5088772;28;20194;-77
2022/10/01 08:15:46;;;;;;;5.40;2.77;;;;;;;24.63;45.97;97477.22;5104598;28;20257;-77
2022/10/01 08:18:13;;;;;;;5.10;3.53;;;;;;;24.69;46.57;97481.94;5088584;28;20630;-77
2022/10/01 08:20:40;;;;;;;3.20;2.63;;;;;;;24.68;45.86;97459.06;5086928;28;20224;-78
2022/10/01 08:23:10;;;;;;;4.77;3.53;;;;;;;24.90;46.06;97483.38;5102479;28;20228;-77
2022/10/01 08:25:37;;;;;;;5.43;3.53;;;;;;;24.88;45.84;97435.00;5108595;28;20183;-79
2022/10/01 08:28:06;;;;;;;4.73;3.97;;;;;;;24.92;45.54;97438.19;5109422;28;20743;-78
2022/10/01 08:30:34;;;;;;;9.03;4.27;;;;;;;24.79;46.28;97443.03;5099205;28;20198;-78
2022/10/01 08:33:02;;;;;;;5.13;4.30;;;;;;;24.96;45.60;97450.16;5108787;28;20692;-76
2022/10/01 08:35:29;;;;;;;9.33;4.67;;;;;;;25.20;45.60;97453.09;5089823;28;20236;-77
2022/10/01 08:38:01;;;;;;;6.90;3.90;;;;;;;25.23;45.42;97457.22;5108323;28;20190;-76
2022/10/01 08:40:29;;;;;;;8.17;4.27;;;;;;;25.38;45.46;97467.19;5109069;28;20641;-77
2022/10/01 08:43:01;;;;;;;4.43;3.50;;;;;;;25.42;45.09;97462.44;5107600;28;20219;-77
2022/10/01 08:45:37;;;;;;;9.10;3.97;;;;;;;25.54;44.98;97450.59;5109056;28;20215;-77
2022/10/01 08:48:11;;;;;;;4.57;3.73;;;;;;;25.50;45.69;97447.44;5108258;28;20326;-77
2022/10/01 08:50:56;;;;;;;5.83;3.53;;;;;;;25.67;44.55;97470.47;5108418;28;20193;-77
2022/10/01 08:53:56;;;;;;;5.97;4.27;;;;;;;25.87;44.44;97471.09;5109106;28;20555;-77
2022/10/01 08:56:29;;;;;;;4.33;3.60;;;;;;;26.08;44.11;97476.09;5066186;28;20262;-77
2022/10/01 08:59:01;;;;;;;11.47;4.27;;;;;;;26.07;43.52;97454.03;5108428;28;20726;-76
2022/10/01 09:01:29;;;;;;;11.60;6.10;;;;;;;26.20;43.41;97461.56;5090261;28;20560;-78
2022/10/01 09:03:58;;;;;;;5.20;3.60;;;;;;;26.20;43.43;97456.25;5108039;28;20665;-77
2022/10/01 09:06:26;;;;;;;4.53;3.40;;;;;;;26.08;44.98;97452.22;5108371;28;20180;-77
2022/10/01 09:09:24;;;;;;;5.47;3.47;;;;;;;26.01;43.87;97451.16;5089010;28;20223;-77
2022/10/01 09:12:45;;;;;;;7.30;2.97;;;;;;;26.32;42.95;97452.34;5108303;28;20195;-76
2022/10/01 09:15:41;;;;;;;59.97;46.13;;;;;;;26.50;42.71;97437.19;5006319;28;20314;-79
2022/10/01 09:18:29;;;;;;;346.23;168.43;;;;;;;26.37;42.81;97436.78;5108078;28;20717;-77
2022/10/01 09:20:57;;;;;;;454.27;273.43;;;;;;;26.39;43.29;97424.19;5108126;28;20658;-79
2022/10/01 09:23:38;;;;;;;217.53;129.43;;;;;;;26.32;43.76;97409.84;5089844;28;20290;-78
2022/10/01 09:26:11;;;;;;;444.10;264.77;;;;;;;26.52;43.35;97433.38;5107257;28;20276;-77
2022/10/01 09:28:40;;;;;;;288.13;141.13;;;;;;;26.52;42.68;97421.94;5104859;28;20298;-79
2022/10/01 09:31:19;;;;;;;153.70;104.47;;;;;;;26.46;42.92;97415.41;5086857;28;20792;-78
2022/10/01 09:34:00;;;;;;;310.30;211.97;;;;;;;26.36;44.15;97398.75;5087571;28;20196;-77
2022/10/01 09:37:05;;;;;;;932.17;598.87;;;;;;;26.51;44.70;97406.97;5052109;28;20220;-76
2022/10/01 09:39:55;;;;;;;136.60;87.40;;;;;;;26.59;44.46;97414.97;5087077;28;20288;-79
2022/10/01 09:42:26;;;;;;;1259.80;736.33;;;;;;;26.79;44.52;97418.25;5076605;28;20204;-75
2022/10/01 09:44:55;;;;;;;730.00;562.97;;;;;;;26.92;43.63;97411.44;5107754;28;20188;-76
2022/10/01 09:47:24;;;;;;;436.47;328.80;;;;;;;27.08;42.54;97416.81;5080416;28;20291;-79
2022/10/01 09:49:51;;;;;;;1239.07;743.93;;;;;;;27.11;43.12;97378.41;5069178;28;20264;-79
2022/10/01 09:52:25;;;;;;;1999.90;999.90;;;;;;;27.34;43.63;97398.09;5068146;28;20283;-77
2022/10/01 09:55:04;;;;;;;1999.90;999.90;;;;;;;27.35;43.32;97397.91;5102481;28;20324;-78
2022/10/01 09:57:37;;;;;;;1999.90;999.90;;;;;;;27.37;42.76;97400.41;5085737;28;20181;-73
2022/10/01 10:00:17;;;;;;;1756.80;890.60;;;;;;;27.19;43.09;97395.22;5091157;28;20208;-75
2022/10/01 10:02:46;;;;;;;64.83;44.93;;;;;;;27.27;42.05;97395.22;5054173;28;20290;-78
2022/10/01 10:05:21;;;;;;;15.53;10.03;;;;;;;27.19;41.80;97391.72;5085958;28;20589;-78
2022/10/01 10:07:52;;;;;;;13.23;8.40;;;;;;;27.22;41.76;97380.78;5096469;28;20196;-78
2022/10/01 10:10:27;;;;;;;6.27;3.73;;;;;;;27.15;41.91;97383.25;5086507;28;20187;-78
2022/10/01 10:13:03;;;;;;;8.77;5.73;;;;;;;27.25;42.35;97399.03;5086984;28;21147;-78
2022/10/01 10:15:31;;;;;;;10.93;5.43;;;;;;;27.25;42.06;97391.91;5088171;28;20208;-78
2022/10/01 10:18:11;;;;;;;10.57;5.07;;;;;;;27.22;41.79;97402.84;5086285;28;20362;-77
2022/10/01 10:20:42;;;;;;;9.03;4.23;;;;;;;27.20;42.00;97404.03;5069312;28;20233;-77
2022/10/01 10:23:20;;;;;;;11.57;4.40;;;;;;;27.13;42.33;97413.66;5086045;28;20220;-77
2022/10/01 10:25:54;;;;;;;6.67;4.13;;;;;;;27.09;42.24;97410.50;5086566;28;20259;-78
2022/10/01 10:28:23;;;;;;;6.53;4.20;;;;;;;26.98;42.74;97408.13;5086488;28;20189;-76
2022/10/01 10:30:53;;;;;;;9.03;5.37;;;;;;;27.11;42.00;97419.16;5067409;28;20196;-78
2022/10/01 10:33:23;;;;;;;10.97;4.67;;;;;;;27.13;42.46;97418.97;5086801;28;20216;-78
2022/10/01 10:36:03;;;;;;;7.97;4.63;;;;;;;27.16;41.84;97424.78;5085691;28;20216;-78
2022/10/01 10:38:32;;;;;;;6.63;4.10;;;;;;;27.11;41.83;97408.50;5091236;28;20196;-77
2022/10/01 10:41:00;;;;;;;6.33;4.23;;;;;;;27.28;42.28;97422.66;5106819;28;20194;-78
2022/10/01 10:43:35;;;;;;;5.03;3.80;;;;;;;27.23;41.73;97404.53;5106467;28;20654;-77
2022/10/01 10:46:03;;;;;;;7.07;4.00;;;;;;;27.06;42.05;97381.56;5107203;28;20207;-78
2022/10/01 10:48:38;;;;;;;10.17;4.73;;;;;;;27.40;41.90;97413.41;5088083;28;20184;-78
2022/10/01 10:51:05;;;;;;;6.33;4.40;;;;;;;27.44;41.72;97421.88;5107135;28;20179;-79
2022/10/01 10:53:44;;;;;;;8.27;5.30;;;;;;;27.46;41.63;97412.72;5106329;28;20213;-79
2022/10/01 10:56:21;;;;;;;11.00;5.03;;;;;;;27.27;41.86;97392.56;5106803;28;20314;-76
2022/10/01 10:58:52;;;;;;;6.97;5.60;;;;;;;27.29;41.55;97400.38;5106900;28;20679;-79
2022/10/01 11:01:28;;;;;;;5.90;4.00;;;;;;;27.30;41.42;97400.22;5106479;28;20223;-76
2022/10/01 11:03:59;;;;;;;7.17;4.80;;;;;;;27.30;41.28;97402.06;5107027;28;20255;-76
2022/10/01 11:06:29;;;;;;;7.53;4.53;;;;;;;27.41;41.59;97416.91;5105862;28;20216;-76
2022/10/01 11:09:03;;;;;;;5.87;3.90;;;;;;;27.39;41.67;97423.19;5106830;28;20257;-76
2022/10/01 11:11:41;;;;;;;7.03;4.13;;;;;;;27.61;40.76;97423.56;5108092;28;20240;-77
2022/10/01 11:14:55;;;;;;;8.70;4.57;;;;;;;27.50;40.67;97408.75;5107993;28;20271;-78
2022/10/01 11:17:25;;;;;;;9.93;4.80;;;;;;;27.54;41.37;97434.03;5101659;28;20779;-76
2022/10/01 11:20:12;;;;;;;7.27;3.87;;;;;;;27.53;41.34;97421.72;5106953;28;20211;-77
2022/10/01 11:22:54;;;;;;;12.23;6.90;;;;;;;27.55;41.19;97411.75;5078819;28;20261;-78
2022/10/01 11:25:40;;;;;;;9.17;3.80;;;;;;;27.47;41.76;97425.03;5111173;28;20187;-78
2022/10/01 11:28:43;;;;;;;7.50;3.83;;;;;;;27.51;41.45;97438.84;5110115;28;20188;-74
2022/10/01 11:31:16;;;;;;;6.87;3.60;;;;;;;27.43;41.97;97441.50;5110411;28;20240;-82
2022/10/01 11:34:21;;;;;;;5.70;3.30;;;;;;;27.33;42.80;97421.16;5110732;28;20690;-78
2022/10/01 11:37:01;;;;;;;9.27;3.93;;;;;;;27.11;43.83;97421.81;5091799;28;20226;-80
2022/10/01 11:39:30;;;;;;;6.60;4.07;;;;;;;26.88;44.02;97404.78;5110052;28;20184;-77
2022/10/01 11:42:21;;;;;;;5.60;3.30;;;;;;;26.82;44.45;97410.75;5110142;28;20603;-75
2022/10/01 11:44:56;;;;;;;7.17;4.20;;;;;;;26.67;46.27;97401.69;5109696;28;20227;-79
2022/10/01 11:47:35;;;;;;;6.97;3.73;;;;;;;26.63;47.37;97406.50;5111038;28;20188;-79
2022/10/01 11:50:14;;;;;;;6.50;3.40;;;;;;;26.42;47.31;97397.31;5110738;28;20654;-78
2022/10/01 11:52:59;;;;;;;6.43;3.70;;;;;;;26.32;48.06;97413.34;5110062;28;20190;-79
2022/10/01 11:58:51;;;;;;;9.57;4.90;;;;;;;25.94;49.89;97412.94;5109651;28;20262;-80